sensor_id;sensor_type;location;lat;lon;timestamp;pressure;altitude;pressure_sealevel;temperature;humidity
6530;BME280;3298;42.688;23.366;2022-09-03T00:01:32;65505.03;;;-145.06;100.00
6530;BME280;3298;42.688;23.366;2022-09-03T00:04:09;65486.53;;;-145.06;100.00
6530;BME280;3298;42.688;23.366;2022-09-03T00:06:40;65515.31;;;-145.06;100.00
6530;BME280;3298;42.688;23.366;2022-09-03T00:09:13;65379.69;;;-145.06;100.00
6530;BME280;3298;42.688;23.366;2022-09-03T00:11:48;65441.31;;;-145.06;100.00
6530;BME280;3298;42.688;23.366;2022-09-03T00:14:19;65498.88;;;-145.06;100.00
6530;BME280;3298;42.688;23.366;2022-09-03T00:16:50;65198.84;;;-145.06;100.00
6530;BME280;3298;42.688;23.366;2022-09-03T00:19:25;65478.31;;;-145.06;100.00
6530;BME280;3298;42.688;23.366;2022-09-03T00:21:55;65496.81;;;-145.06;100.00
6530;BME280;3298;42.688;23.366;2022-09-03T00:24:27;65474.22;;;-145.06;100.00
6530;BME280;3298;42.688;23.366;2022-09-03T00:26:59;65445.44;;;-145.06;100.00
6530;BME280;3298;42.688;23.366;2022-09-03T00:29:32;65505.03;;;-145.06;100.00
6530;BME280;3298;42.688;23.366;2022-09-03T00:32:05;65507.09;;;-145.06;100.00
6530;BME280;3298;42.688;23.366;2022-09-03T00:34:37;65455.72;;;-145.06;100.00
6530;BME280;3298;42.688;23.366;2022-09-03T00:37:06;65486.53;;;-145.06;100.00
6530;BME280;3298;42.688;23.366;2022-09-03T00:39:35;65474.22;;;-145.06;100.00
6530;BME280;3298;42.688;23.366;2022-09-03T00:42:16;65500.91;;;-145.06;100.00
6530;BME280;3298;42.688;23.366;2022-09-03T00:45:03;65457.78;;;-145.06;100.00
6530;BME280;3298;42.688;23.366;2022-09-03T00:47:45;65515.31;;;-145.06;100.00
6530;BME280;3298;42.688;23.366;2022-09-03T00:50:24;65492.69;;;-145.06;100.00
6530;BME280;3298;42.688;23.366;2022-09-03T00:52:59;65297.47;;;-145.06;100.00
6530;BME280;3298;42.688;23.366;2022-09-03T00:55:38;65268.72;;;-145.06;100.00
6530;BME280;3298;42.688;23.366;2022-09-03T00:58:24;65439.28;;;-145.06;100.00
6530;BME280;3298;42.688;23.366;2022-09-03T01:00:55;65250.22;;;-145.06;100.00
6530;BME280;3298;42.688;23.366;2022-09-03T01:03:27;65468.03;;;-145.06;100.00
6530;BME280;3298;42.688;23.366;2022-09-03T01:06:13;65507.09;;;-145.06;100.00
6530;BME280;3298;42.688;23.366;2022-09-03T01:08:58;65505.03;;;-145.06;100.00
6530;BME280;3298;42.688;23.366;2022-09-03T01:11:36;65441.31;;;-145.06;100.00
6530;BME280;3298;42.688;23.366;2022-09-03T01:14:16;65435.16;;;-145.06;100.00
6530;BME280;3298;42.688;23.366;2022-09-03T01:16:52;65451.59;;;-145.06;100.00
6530;BME280;3298;42.688;23.366;2022-09-03T01:19:46;65457.78;;;-145.06;100.00
6530;BME280;3298;42.688;23.366;2022-09-03T01:22:30;65466.00;;;-145.06;100.00
6530;BME280;3298;42.688;23.366;2022-09-03T01:25:22;65484.47;;;-145.06;100.00
6530;BME280;3298;42.688;23.366;2022-09-03T01:28:07;65433.09;;;-145.06;100.00
6530;BME280;3298;42.688;23.366;2022-09-03T01:30:41;65470.09;;;-145.06;100.00
6530;BME280;3298;42.688;23.366;2022-09-03T01:33:16;65500.91;;;-145.06;100.00
6530;BME280;3298;42.688;23.366;2022-09-03T01:35:48;65498.88;;;-145.06;100.00
6530;BME280;3298;42.688;23.366;2022-09-03T01:38:24;65490.66;;;-145.06;100.00
6530;BME280;3298;42.688;23.366;2022-09-03T01:41:02;65488.59;;;-145.06;100.00
6530;BME280;3298;42.688;23.366;2022-09-03T01:43:54;65507.09;;;-145.06;100.00
6530;BME280;3298;42.688;23.366;2022-09-03T01:46:33;65486.53;;;-145.06;100.00
6530;BME280;3298;42.688;23.366;2022-09-03T01:49:12;65490.66;;;-145.06;100.00
6530;BME280;3298;42.688;23.366;2022-09-03T01:51:45;65505.03;;;-145.06;100.00
6530;BME280;3298;42.688;23.366;2022-09-03T01:54:23;65453.66;;;-145.06;100.00
6530;BME280;3298;42.688;23.366;2022-09-03T01:57:07;65494.75;;;-145.06;100.00
6530;BME280;3298;42.688;23.366;2022-09-03T01:59:48;65474.22;;;-145.06;100.00
6530;BME280;3298;42.688;23.366;2022-09-03T02:02:20;65502.97;;;-145.06;100.00
6530;BME280;3298;42.688;23.366;2022-09-03T02:04:57;65474.22;;;-145.06;100.00
6530;BME280;3298;42.688;23.366;2022-09-03T02:07:27;65482.44;;;-145.06;100.00
6530;BME280;3298;42.688;23.366;2022-09-03T02:09:57;65490.66;;;-145.06;100.00
6530;BME280;3298;42.688;23.366;2022-09-03T02:12:24;65511.19;;;-145.06;100.00
6530;BME280;3298;42.688;23.366;2022-09-03T02:14:53;65441.31;;;-145.06;100.00
6530;BME280;3298;42.688;23.366;2022-09-03T02:17:20;67167.94;;;-145.06;100.00
6530;BME280;3298;42.688;23.366;2022-09-03T02:19:47;65435.16;;;-145.06;100.00
6530;BME280;3298;42.688;23.366;2022-09-03T02:22:14;65478.31;;;-145.06;100.00
6530;BME280;3298;42.688;23.366;2022-09-03T02:24:42;65500.91;;;-145.06;100.00
6530;BME280;3298;42.688;23.366;2022-09-03T02:27:09;65474.22;;;-145.06;100.00
6530;BME280;3298;42.688;23.366;2022-09-03T02:29:36;65482.44;;;-145.06;100.00
6530;BME280;3298;42.688;23.366;2022-09-03T02:32:04;65494.75;;;-145.06;100.00
6530;BME280;3298;42.688;23.366;2022-09-03T02:34:31;65420.78;;;-145.06;100.00
6530;BME280;3298;42.688;23.366;2022-09-03T02:36:58;65470.09;;;-145.06;100.00
6530;BME280;3298;42.688;23.366;2022-09-03T02:39:24;65470.09;;;-145.06;100.00
6530;BME280;3298;42.688;23.366;2022-09-03T02:42:01;65459.81;;;-145.06;100.00
6530;BME280;3298;42.688;23.366;2022-09-03T02:44:29;65242.00;;;-145.06;100.00
6530;BME280;3298;42.688;23.366;2022-09-03T02:47:00;65098.16;;;-145.06;100.00
6530;BME280;3298;42.688;23.366;2022-09-03T02:49:29;65507.09;;;-145.06;100.00
6530;BME280;3298;42.688;23.366;2022-09-03T02:51:57;66867.78;;;-145.06;100.00
6530;BME280;3298;42.688;23.366;2022-09-03T02:54:25;65488.59;;;-145.06;100.00
6530;BME280;3298;42.688;23.366;2022-09-03T02:56:52;65463.94;;;-145.06;100.00
6530;BME280;3298;42.688;23.366;2022-09-03T02:59:19;65474.22;;;-145.06;100.00
6530;BME280;3298;42.688;23.366;2022-09-03T03:01:47;65468.03;;;-145.06;100.00
6530;BME280;3298;42.688;23.366;2022-09-03T03:04:14;65470.09;;;-145.06;100.00
6530;BME280;3298;42.688;23.366;2022-09-03T03:06:43;65470.09;;;-145.06;100.00
6530;BME280;3298;42.688;23.366;2022-09-03T03:09:09;65437.22;;;-145.06;100.00
6530;BME280;3298;42.688;23.366;2022-09-03T03:11:36;65470.09;;;-145.06;100.00
6530;BME280;3298;42.688;23.366;2022-09-03T03:14:04;67188.50;;;-145.06;100.00
6530;BME280;3298;42.688;23.366;2022-09-03T03:16:31;65490.66;;;-145.06;100.00
6530;BME280;3298;42.688;23.366;2022-09-03T03:18:58;65313.91;;;-145.06;100.00
6530;BME280;3298;42.688;23.366;2022-09-03T03:21:25;65244.06;;;-145.06;100.00
6530;BME280;3298;42.688;23.366;2022-09-03T03:23:54;65502.97;;;-145.06;100.00
6530;BME280;3298;42.688;23.366;2022-09-03T03:26:20;65365.28;;;-145.06;100.00
6530;BME280;3298;42.688;23.366;2022-09-03T03:28:49;65172.13;;;-145.06;100.00
6530;BME280;3298;42.688;23.366;2022-09-03T03:31:19;65344.75;;;-145.06;100.00
6530;BME280;3298;42.688;23.366;2022-09-03T03:33:49;65474.22;;;-145.06;100.00
6530;BME280;3298;42.688;23.366;2022-09-03T03:36:16;65500.91;;;-145.06;100.00
6530;BME280;3298;42.688;23.366;2022-09-03T03:38:44;65466.00;;;-145.06;100.00
6530;BME280;3298;42.688;23.366;2022-09-03T03:41:14;65498.88;;;-145.06;100.00
6530;BME280;3298;42.688;23.366;2022-09-03T03:43:42;65463.94;;;-145.06;100.00
6530;BME280;3298;42.688;23.366;2022-09-03T03:46:10;65342.69;;;-145.06;100.00
6530;BME280;3298;42.688;23.366;2022-09-03T03:48:37;65433.09;;;-145.06;100.00
6530;BME280;3298;42.688;23.366;2022-09-03T03:51:06;65463.94;;;-145.06;100.00
6530;BME280;3298;42.688;23.366;2022-09-03T03:53:34;65457.78;;;-145.06;100.00
6530;BME280;3298;42.688;23.366;2022-09-03T03:56:04;65463.94;;;-145.06;100.00
6530;BME280;3298;42.688;23.366;2022-09-03T03:58:33;65406.41;;;-145.06;100.00
6530;BME280;3298;42.688;23.366;2022-09-03T04:01:04;65453.66;;;-145.06;100.00
6530;BME280;3298;42.688;23.366;2022-09-03T04:03:31;65219.41;;;-145.06;100.00
6530;BME280;3298;42.688;23.366;2022-09-03T04:05:59;65344.75;;;-145.06;100.00
6530;BME280;3298;42.688;23.366;2022-09-03T04:08:27;65328.31;;;-145.06;100.00
6530;BME280;3298;42.688;23.366;2022-09-03T04:10:59;65322.13;;;-145.06;100.00
6530;BME280;3298;42.688;23.366;2022-09-03T04:13:28;65342.69;;;-145.06;100.00
6530;BME280;3298;42.688;23.366;2022-09-03T04:16:00;65244.06;;;-145.06;100.00
6530;BME280;3298;42.688;23.366;2022-09-03T04:18:27;65248.16;;;-145.06;100.00
6530;BME280;3298;42.688;23.366;2022-09-03T04:20:58;65172.13;;;-145.06;100.00
6530;BME280;3298;42.688;23.366;2022-09-03T04:23:25;65190.63;;;-145.06;100.00
6530;BME280;3298;42.688;23.366;2022-09-03T04:25:53;65165.97;;;-145.06;100.00
6530;BME280;3298;42.688;23.366;2022-09-03T04:28:20;65297.47;;;-145.06;100.00
6530;BME280;3298;42.688;23.366;2022-09-03T04:30:47;65303.66;;;-145.06;100.00
6530;BME280;3298;42.688;23.366;2022-09-03T04:33:15;65291.31;;;-145.06;100.00
6530;BME280;3298;42.688;23.366;2022-09-03T04:35:42;65309.81;;;-145.06;100.00
6530;BME280;3298;42.688;23.366;2022-09-03T04:38:09;65856.47;;;-145.06;100.00
6530;BME280;3298;42.688;23.366;2022-09-03T04:40:36;65313.91;;;-145.06;100.00
6530;BME280;3298;42.688;23.366;2022-09-03T04:43:03;65301.59;;;-145.06;100.00
6530;BME280;3298;42.688;23.366;2022-09-03T04:45:30;64539.31;;;-145.06;100.00
6530;BME280;3298;42.688;23.366;2022-09-03T04:47:58;64993.38;;;-145.06;100.00
6530;BME280;3298;42.688;23.366;2022-09-03T04:50:27;64691.34;;;-145.06;100.00
6530;BME280;3298;42.688;23.366;2022-09-03T04:52:54;64126.38;;;-145.06;100.00
6530;BME280;3298;42.688;23.366;2022-09-03T04:55:22;64389.34;;;-145.06;100.00
6530;BME280;3298;42.688;23.366;2022-09-03T04:57:49;64120.22;;;-145.06;100.00
6530;BME280;3298;42.688;23.366;2022-09-03T05:00:16;64103.78;;;-145.06;100.00
6530;BME280;3298;42.688;23.366;2022-09-03T05:02:44;63968.22;;;-145.06;100.00
6530;BME280;3298;42.688;23.366;2022-09-03T05:05:13;64705.72;;;-145.06;100.00
6530;BME280;3298;42.688;23.366;2022-09-03T05:07:41;63658.06;;;-145.06;100.00
6530;BME280;3298;42.688;23.366;2022-09-03T05:10:10;63485.53;;;-145.06;100.00
6530;BME280;3298;42.688;23.366;2022-09-03T05:12:40;63140.53;;;-145.06;100.00
6530;BME280;3298;42.688;23.366;2022-09-03T05:15:08;63206.22;;;-145.06;100.00
6530;BME280;3298;42.688;23.366;2022-09-03T05:17:34;63041.94;;;-145.06;100.00
6530;BME280;3298;42.688;23.366;2022-09-03T05:20:03;62822.22;;;-145.06;100.00
6530;BME280;3298;42.688;23.366;2022-09-03T05:22:30;62653.84;;;-145.06;100.00
6530;BME280;3298;42.688;23.366;2022-09-03T05:24:58;62438.25;;;-145.06;100.00
6530;BME280;3298;42.688;23.366;2022-09-03T05:27:25;62044.06;;;-145.06;100.00
6530;BME280;3298;42.688;23.366;2022-09-03T05:29:52;61986.59;;;-145.06;100.00
6530;BME280;3298;42.688;23.366;2022-09-03T05:32:18;61795.69;;;-145.06;100.00
6530;BME280;3298;42.688;23.366;2022-09-03T05:34:45;61530.88;;;-145.06;100.00
6530;BME280;3298;42.688;23.366;2022-09-03T05:37:12;61346.16;;;-145.06;100.00
6530;BME280;3298;42.688;23.366;2022-09-03T05:39:38;61169.63;;;-145.06;100.00
6530;BME280;3298;42.688;23.366;2022-09-03T05:42:07;60997.25;;;-145.06;100.00
6530;BME280;3298;42.688;23.366;2022-09-03T05:44:33;60933.63;;;-145.06;100.00
6530;BME280;3298;42.688;23.366;2022-09-03T05:47:01;60888.47;;;-145.06;100.00
6530;BME280;3298;42.688;23.366;2022-09-03T05:49:28;60381.59;;;-145.06;100.00
6530;BME280;3298;42.688;23.366;2022-09-03T05:51:55;60787.91;;;-145.06;100.00
6530;BME280;3298;42.688;23.366;2022-09-03T05:54:22;60679.16;;;-145.06;100.00
6530;BME280;3298;42.688;23.366;2022-09-03T05:56:48;60631.94;;;-145.06;100.00
6530;BME280;3298;42.688;23.366;2022-09-03T05:59:16;60648.38;;;-145.06;100.00
6530;BME280;3298;42.688;23.366;2022-09-03T06:01:44;60570.38;;;-145.06;100.00
6530;BME280;3298;42.688;23.366;2022-09-03T06:04:13;60615.53;;;-145.06;100.00
6530;BME280;3298;42.688;23.366;2022-09-03T06:06:43;60562.19;;;-145.06;100.00
6530;BME280;3298;42.688;23.366;2022-09-03T06:09:12;60537.56;;;-145.06;100.00
6530;BME280;3298;42.688;23.366;2022-09-03T06:11:40;60568.34;;;-145.06;100.00
6530;BME280;3298;42.688;23.366;2022-09-03T06:14:09;60574.50;;;-145.06;100.00
6530;BME280;3298;42.688;23.366;2022-09-03T06:16:39;60578.59;;;-145.06;100.00
6530;BME280;3298;42.688;23.366;2022-09-03T06:19:07;60535.50;;;-145.06;100.00
6530;BME280;3298;42.688;23.366;2022-09-03T06:21:35;60595.00;;;-145.06;100.00
6530;BME280;3298;42.688;23.366;2022-09-03T06:24:04;60562.19;;;-145.06;100.00
6530;BME280;3298;42.688;23.366;2022-09-03T06:26:31;60564.22;;;-145.06;100.00
6530;BME280;3298;42.688;23.366;2022-09-03T06:29:00;60545.75;;;-145.06;100.00
6530;BME280;3298;42.688;23.366;2022-09-03T06:31:26;60556.03;;;-145.06;100.00
6530;BME280;3298;42.688;23.366;2022-09-03T06:33:55;60545.75;;;-145.06;100.00
6530;BME280;3298;42.688;23.366;2022-09-03T06:36:23;60512.94;;;-145.06;100.00
6530;BME280;3298;42.688;23.366;2022-09-03T06:38:52;60558.06;;;-145.06;100.00
6530;BME280;3298;42.688;23.366;2022-09-03T06:41:20;60525.25;;;-145.06;100.00
6530;BME280;3298;42.688;23.366;2022-09-03T06:43:49;60492.41;;;-145.06;100.00
6530;BME280;3298;42.688;23.366;2022-09-03T06:46:18;60517.03;;;-145.06;100.00
6530;BME280;3298;42.688;23.366;2022-09-03T06:48:45;60476.00;;;-145.06;100.00
6530;BME280;3298;42.688;23.366;2022-09-03T06:51:14;60492.41;;;-145.06;100.00
6530;BME280;3298;42.688;23.366;2022-09-03T06:53:44;60482.16;;;-145.06;100.00
6530;BME280;3298;42.688;23.366;2022-09-03T06:56:12;60426.75;;;-145.06;100.00
6530;BME280;3298;42.688;23.366;2022-09-03T06:58:41;60447.25;;;-145.06;100.00
6530;BME280;3298;42.688;23.366;2022-09-03T07:01:09;60434.94;;;-145.06;100.00
6530;BME280;3298;42.688;23.366;2022-09-03T07:03:38;60408.28;;;-145.06;100.00
6530;BME280;3298;42.688;23.366;2022-09-03T07:06:07;62885.88;;;-145.06;100.00
6530;BME280;3298;42.688;23.366;2022-09-03T07:08:36;60414.44;;;-145.06;100.00
6530;BME280;3298;42.688;23.366;2022-09-03T07:11:04;60426.75;;;-145.06;100.00
6530;BME280;3298;42.688;23.366;2022-09-03T07:13:33;60279.00;;;-145.06;100.00
6530;BME280;3298;42.688;23.366;2022-09-03T07:16:01;60426.75;;;-145.06;99.83
6530;BME280;3298;42.688;23.366;2022-09-03T07:18:29;60476.00;;;-145.06;98.91
6530;BME280;3298;42.688;23.366;2022-09-03T07:20:59;60303.63;;;-145.06;97.03
6530;BME280;3298;42.688;23.366;2022-09-03T07:23:26;60545.75;;;-145.06;96.35
6530;BME280;3298;42.688;23.366;2022-09-03T07:25:56;60504.72;;;-145.06;97.51
6530;BME280;3298;42.688;23.366;2022-09-03T07:28:24;60480.09;;;-145.06;98.50
6530;BME280;3298;42.688;23.366;2022-09-03T07:30:52;60276.94;;;-145.06;98.02
6530;BME280;3298;42.688;23.366;2022-09-03T07:33:19;60482.16;;;-145.06;97.69
6530;BME280;3298;42.688;23.366;2022-09-03T07:35:46;60496.50;;;-145.06;98.61
6530;BME280;3298;42.688;23.366;2022-09-03T07:38:16;60393.91;;;-145.06;98.10
6530;BME280;3298;42.688;23.366;2022-09-03T07:40:44;60461.63;;;-145.06;97.82
6530;BME280;3298;42.688;23.366;2022-09-03T07:43:13;60449.31;;;-145.06;97.91
6530;BME280;3298;42.688;23.366;2022-09-03T07:45:39;60492.41;;;-145.06;97.53
6530;BME280;3298;42.688;23.366;2022-09-03T07:48:10;60467.78;;;-145.06;94.81
6530;BME280;3298;42.688;23.366;2022-09-03T07:50:37;60500.63;;;-145.06;95.49
6530;BME280;3298;42.688;23.366;2022-09-03T07:53:04;60607.31;;;-145.06;94.21
6530;BME280;3298;42.688;23.366;2022-09-03T07:55:32;60566.28;;;-145.06;93.19
6530;BME280;3298;42.688;23.366;2022-09-03T07:57:59;60521.13;;;-145.06;94.81
6530;BME280;3298;42.688;23.366;2022-09-03T08:00:27;60439.06;;;-145.06;94.63
6530;BME280;3298;42.688;23.366;2022-09-03T08:02:54;60558.06;;;-145.06;94.18
6530;BME280;3298;42.688;23.366;2022-09-03T08:05:21;60467.78;;;-145.06;92.96
6530;BME280;3298;42.688;23.366;2022-09-03T08:07:47;60603.22;;;-145.06;92.46
6530;BME280;3298;42.688;23.366;2022-09-03T08:10:15;60619.63;;;-145.06;92.53
6530;BME280;3298;42.688;23.366;2022-09-03T08:12:42;60529.34;;;-145.06;92.42
6530;BME280;3298;42.688;23.366;2022-09-03T08:15:09;60533.44;;;-145.06;91.69
6530;BME280;3298;42.688;23.366;2022-09-03T08:17:37;60611.44;;;-145.06;91.39
6530;BME280;3298;42.688;23.366;2022-09-03T08:20:04;60699.66;;;-145.06;91.30
6530;BME280;3298;42.688;23.366;2022-09-03T08:22:32;60605.28;;;-145.06;90.55
6530;BME280;3298;42.688;23.366;2022-09-03T08:24:59;60562.19;;;-145.06;90.78
6530;BME280;3298;42.688;23.366;2022-09-03T08:27:26;60508.81;;;-145.06;90.04
6530;BME280;3298;42.688;23.366;2022-09-03T08:29:53;60133.31;;;-145.06;90.91
6530;BME280;3298;42.688;23.366;2022-09-03T08:32:20;60523.19;;;-145.06;90.74
6530;BME280;3298;42.688;23.366;2022-09-03T08:34:48;60455.47;;;-145.06;89.53
6530;BME280;3298;42.688;23.366;2022-09-03T08:37:16;60535.50;;;-145.06;89.54
6530;BME280;3298;42.688;23.366;2022-09-03T08:39:43;60578.59;;;-145.06;87.50
6530;BME280;3298;42.688;23.366;2022-09-03T08:42:24;60623.75;;;-145.06;87.60
6530;BME280;3298;42.688;23.366;2022-09-03T08:44:57;60603.22;;;-145.06;86.96
6530;BME280;3298;42.688;23.366;2022-09-03T08:47:28;60588.84;;;-145.06;84.80
6530;BME280;3298;42.688;23.366;2022-09-03T08:49:59;60603.22;;;-145.06;84.51
6530;BME280;3298;42.688;23.366;2022-09-03T08:52:29;60652.47;;;-145.06;84.13
6530;BME280;3298;42.688;23.366;2022-09-03T08:55:04;61440.56;;;-145.06;83.51
6530;BME280;3298;42.688;23.366;2022-09-03T08:57:41;60656.56;;;-145.06;83.99
6530;BME280;3298;42.688;23.366;2022-09-03T09:00:10;60621.69;;;-145.06;81.61
6530;BME280;3298;42.688;23.366;2022-09-03T09:02:48;60656.56;;;-145.06;82.17
6530;BME280;3298;42.688;23.366;2022-09-03T09:05:23;60687.34;;;-145.06;81.20
6530;BME280;3298;42.688;23.366;2022-09-03T09:07:57;60668.88;;;-145.06;80.42
6530;BME280;3298;42.688;23.366;2022-09-03T09:10:29;60541.66;;;-145.06;81.62
6530;BME280;3298;42.688;23.366;2022-09-03T09:13:08;60707.88;;;-145.06;79.69
6530;BME280;3298;42.688;23.366;2022-09-03T09:15:47;60775.59;;;-145.06;78.82
6530;BME280;3298;42.688;23.366;2022-09-03T09:18:22;60738.66;;;-145.06;78.77
6530;BME280;3298;42.688;23.366;2022-09-03T09:21:01;60738.66;;;-145.06;79.40
6530;BME280;3298;42.688;23.366;2022-09-03T09:23:37;60742.75;;;-145.06;78.54
6530;BME280;3298;42.688;23.366;2022-09-03T09:26:09;60709.94;;;-145.06;78.15
6530;BME280;3298;42.688;23.366;2022-09-03T09:28:37;60709.94;;;-145.06;79.18
6530;BME280;3298;42.688;23.366;2022-09-03T09:31:06;60755.06;;;-145.06;78.30
6530;BME280;3298;42.688;23.366;2022-09-03T09:33:37;60779.69;;;-145.06;76.72
6530;BME280;3298;42.688;23.366;2022-09-03T09:36:07;60792.00;;;-145.06;76.65
6530;BME280;3298;42.688;23.366;2022-09-03T09:38:38;60769.44;;;-145.06;75.97
6530;BME280;3298;42.688;23.366;2022-09-03T09:41:09;60775.59;;;-145.06;76.11
6530;BME280;3298;42.688;23.366;2022-09-03T09:43:36;60833.06;;;-145.06;76.38
6530;BME280;3298;42.688;23.366;2022-09-03T09:46:11;60779.69;;;-145.06;76.23
6530;BME280;3298;42.688;23.366;2022-09-03T09:48:45;60775.59;;;-145.06;76.81
6530;BME280;3298;42.688;23.366;2022-09-03T09:51:21;60781.75;;;-145.06;76.72
6530;BME280;3298;42.688;23.366;2022-09-03T09:53:58;60789.97;;;-145.06;75.29
6530;BME280;3298;42.688;23.366;2022-09-03T09:56:25;60794.06;;;-145.06;77.24
6530;BME280;3298;42.688;23.366;2022-09-03T09:59:01;60853.56;;;-145.06;75.31
6530;BME280;3298;42.688;23.366;2022-09-03T10:01:28;60870.00;;;-145.06;75.84
6530;BME280;3298;42.688;23.366;2022-09-03T10:03:58;60972.59;;;-145.06;76.35
6530;BME280;3298;42.688;23.366;2022-09-03T10:06:28;60808.44;;;-145.06;75.97
6530;BME280;3298;42.688;23.366;2022-09-03T10:09:18;60962.34;;;-145.06;75.94
6530;BME280;3298;42.688;23.366;2022-09-03T10:11:47;60818.69;;;-145.06;74.89
6530;BME280;3298;42.688;23.366;2022-09-03T10:14:19;60931.56;;;-145.06;74.81
6530;BME280;3298;42.688;23.366;2022-09-03T10:16:54;60974.66;;;-145.06;74.30
6530;BME280;3298;42.688;23.366;2022-09-03T10:19:27;61046.50;;;-145.06;73.93
6530;BME280;3298;42.688;23.366;2022-09-03T10:22:06;60921.31;;;-145.06;73.38
6530;BME280;3298;42.688;23.366;2022-09-03T10:24:42;61025.97;;;-145.06;73.43
6530;BME280;3298;42.688;23.366;2022-09-03T10:27:15;60863.84;;;-145.06;73.53
6530;BME280;3298;42.688;23.366;2022-09-03T10:29:43;61034.19;;;-145.06;73.88
6530;BME280;3298;42.688;23.366;2022-09-03T10:32:19;61089.59;;;-145.06;73.02
6530;BME280;3298;42.688;23.366;2022-09-03T10:34:55;61083.44;;;-145.06;70.97
6530;BME280;3298;42.688;23.366;2022-09-03T10:37:33;61116.28;;;-145.06;70.53
6530;BME280;3298;42.688;23.366;2022-09-03T10:40:14;61124.47;;;-145.06;70.14
6530;BME280;3298;42.688;23.366;2022-09-03T10:42:47;61075.22;;;-145.06;69.89
6530;BME280;3298;42.688;23.366;2022-09-03T10:45:25;61103.97;;;-145.06;69.52
6530;BME280;3298;42.688;23.366;2022-09-03T10:48:18;61062.91;;;-145.06;68.50
6530;BME280;3298;42.688;23.366;2022-09-03T10:50:51;60720.19;;;-145.06;67.07
6530;BME280;3298;42.688;23.366;2022-09-03T10:53:46;61091.66;;;-145.06;67.36
6530;BME280;3298;42.688;23.366;2022-09-03T10:56:21;61145.00;;;-145.06;65.55
6530;BME280;3298;42.688;23.366;2022-09-03T10:59:00;60943.88;;;-145.06;66.35
6530;BME280;3298;42.688;23.366;2022-09-03T11:01:36;61062.91;;;-145.06;65.08
6530;BME280;3298;42.688;23.366;2022-09-03T11:04:25;61050.59;;;-145.06;64.10
6530;BME280;3298;42.688;23.366;2022-09-03T11:06:56;61005.44;;;-145.06;63.64
6530;BME280;3298;42.688;23.366;2022-09-03T11:09:30;60699.66;;;-145.06;63.91
6530;BME280;3298;42.688;23.366;2022-09-03T11:12:04;61079.34;;;-145.06;63.91
6530;BME280;3298;42.688;23.366;2022-09-03T11:14:35;61081.38;;;-145.06;63.20
6530;BME280;3298;42.688;23.366;2022-09-03T11:17:08;61093.69;;;-145.06;62.93
6530;BME280;3298;42.688;23.366;2022-09-03T11:19:43;61223.00;;;-145.06;62.03
6530;BME280;3298;42.688;23.366;2022-09-03T11:22:15;60993.13;;;-145.06;61.32
6530;BME280;3298;42.688;23.366;2022-09-03T11:24:48;61220.94;;;-145.06;60.86
6530;BME280;3298;42.688;23.366;2022-09-03T11:27:25;61329.72;;;-145.06;59.94
6530;BME280;3298;42.688;23.366;2022-09-03T11:29:59;61321.50;;;-145.06;59.56
6530;BME280;3298;42.688;23.366;2022-09-03T11:32:38;61366.66;;;-145.06;59.62
6530;BME280;3298;42.688;23.366;2022-09-03T11:35:13;61411.81;;;-145.06;59.42
6530;BME280;3298;42.688;23.366;2022-09-03T11:37:49;64395.50;;;-145.06;59.43
6530;BME280;3298;42.688;23.366;2022-09-03T11:40:19;61539.09;;;-145.06;58.17
6530;BME280;3298;42.688;23.366;2022-09-03T11:43:04;61555.50;;;-145.06;58.09
6530;BME280;3298;42.688;23.366;2022-09-03T11:45:36;61612.97;;;-145.06;57.60
6530;BME280;3298;42.688;23.366;2022-09-03T11:48:17;61301.00;;;-145.06;56.89
6530;BME280;3298;42.688;23.366;2022-09-03T11:50:52;61313.31;;;-145.06;58.15
6530;BME280;3298;42.688;23.366;2022-09-03T11:53:25;61567.81;;;-145.06;59.55
6530;BME280;3298;42.688;23.366;2022-09-03T11:55:59;61440.56;;;-145.06;59.87
6530;BME280;3298;42.688;23.366;2022-09-03T11:58:29;61356.41;;;-145.06;59.93
6530;BME280;3298;42.688;23.366;2022-09-03T12:00:58;61120.38;;;-145.06;59.84
6530;BME280;3298;42.688;23.366;2022-09-03T12:03:35;61173.75;;;-145.06;59.40
6530;BME280;3298;42.688;23.366;2022-09-03T12:06:20;61323.56;;;-145.06;58.58
6530;BME280;3298;42.688;23.366;2022-09-03T12:09:24;61426.19;;;-145.06;57.19
6530;BME280;3298;42.688;23.366;2022-09-03T12:12:01;61370.78;;;-145.06;57.05
6530;BME280;3298;42.688;23.366;2022-09-03T12:14:39;61584.25;;;-145.06;55.77
6530;BME280;3298;42.688;23.366;2022-09-03T12:17:17;61715.63;;;-145.06;54.15
6530;BME280;3298;42.688;23.366;2022-09-03T12:19:50;61867.53;;;-145.06;52.90
6530;BME280;3298;42.688;23.366;2022-09-03T12:22:19;61654.03;;;-145.06;54.00
6530;BME280;3298;42.688;23.366;2022-09-03T12:24:46;61707.41;;;-145.06;53.81
6530;BME280;3298;42.688;23.366;2022-09-03T12:27:18;61707.41;;;-145.06;53.66
6530;BME280;3298;42.688;23.366;2022-09-03T12:29:51;61249.69;;;-145.06;55.35
6530;BME280;3298;42.688;23.366;2022-09-03T12:32:25;61553.47;;;-145.06;55.25
6530;BME280;3298;42.688;23.366;2022-09-03T12:34:52;61842.91;;;-145.06;53.49
6530;BME280;3298;42.688;23.366;2022-09-03T12:37:20;61551.41;;;-145.06;53.81
6530;BME280;3298;42.688;23.366;2022-09-03T12:39:52;61637.63;;;-145.06;52.81
6530;BME280;3298;42.688;23.366;2022-09-03T12:42:23;61623.25;;;-145.06;51.94
6530;BME280;3298;42.688;23.366;2022-09-03T12:44:51;61576.03;;;-145.06;53.28
6530;BME280;3298;42.688;23.366;2022-09-03T12:47:20;62023.53;;;-145.06;53.08
6530;BME280;3298;42.688;23.366;2022-09-03T12:49:48;61387.19;;;-145.06;54.21
6530;BME280;3298;42.688;23.366;2022-09-03T12:52:20;61329.72;;;-145.06;55.01
6530;BME280;3298;42.688;23.366;2022-09-03T12:54:53;61303.03;;;-145.06;54.93
6530;BME280;3298;42.688;23.366;2022-09-03T12:57:25;61461.09;;;-145.06;53.90
6530;BME280;3298;42.688;23.366;2022-09-03T12:59:57;61621.19;;;-145.06;52.88
6530;BME280;3298;42.688;23.366;2022-09-03T13:02:34;61723.84;;;-145.06;52.71
6530;BME280;3298;42.688;23.366;2022-09-03T13:05:02;61801.84;;;-145.06;51.98
6530;BME280;3298;42.688;23.366;2022-09-03T13:07:32;61844.94;;;-145.06;51.56